createdAt,value
2022-08-29T00:00:18.508Z,17.02
2022-08-29T00:01:21.306Z,16.98
2022-08-29T00:02:24.764Z,16.87
2022-08-29T00:03:27.465Z,16.96
2022-08-29T00:04:31.806Z,16.95
2022-08-29T00:05:36.124Z,16.92
2022-08-29T00:06:37.831Z,16.91
2022-08-29T00:07:39.445Z,16.89
2022-08-29T00:08:41.067Z,16.87
2022-08-29T00:09:42.825Z,16.83
2022-08-29T00:10:44.622Z,16.82
2022-08-29T00:11:46.588Z,16.81
2022-08-29T00:12:48.824Z,16.78
2022-08-29T00:13:50.511Z,16.73
2022-08-29T00:14:52.004Z,16.80
2022-08-29T00:15:53.575Z,16.60
2022-08-29T00:16:55.105Z,16.75
2022-08-29T00:17:56.698Z,16.79
2022-08-29T00:18:58.410Z,16.79
2022-08-29T00:19:59.968Z,16.79
2022-08-29T00:21:02.505Z,16.80
2022-08-29T00:22:03.987Z,16.72
2022-08-29T00:23:07.074Z,16.72
2022-08-29T00:24:08.925Z,16.75
2022-08-29T00:25:12.552Z,16.73
2022-08-29T00:26:14.194Z,16.73
2022-08-29T00:27:16.153Z,16.76
2022-08-29T00:28:17.725Z,16.42
2022-08-29T00:29:19.240Z,16.72
2022-08-29T00:30:22.134Z,16.78
2022-08-29T00:31:23.654Z,16.64
2022-08-29T00:32:25.500Z,16.74
2022-08-29T00:33:27.116Z,16.72
2022-08-29T00:34:28.623Z,16.47
2022-08-29T00:35:36.203Z,16.67
2022-08-29T00:36:37.839Z,16.57
2022-08-29T00:37:40.563Z,16.58
2022-08-29T00:38:42.202Z,16.60
2022-08-29T00:39:44.912Z,16.56
2022-08-29T00:40:51.396Z,16.53
2022-08-29T00:41:53.641Z,16.38
2022-08-29T00:42:55.536Z,16.51
2022-08-29T00:43:57.079Z,16.43
2022-08-29T00:44:58.610Z,16.45
2022-08-29T00:46:11.826Z,16.26
2022-08-29T00:47:19.508Z,16.35
2022-08-29T00:48:21.457Z,16.32
2022-08-29T00:49:23.154Z,16.42
2022-08-29T00:50:40.877Z,16.40
2022-08-29T00:51:42.461Z,16.36
2022-08-29T00:52:48.002Z,16.35
2022-08-29T00:53:57.679Z,16.30
2022-08-29T00:55:02.278Z,16.26
2022-08-29T00:56:07.027Z,16.22
2022-08-29T00:57:09.412Z,15.96
2022-08-29T00:58:18.179Z,16.04
2022-08-29T00:59:28.246Z,16.15
2022-08-29T01:00:31.836Z,16.13
2022-08-29T01:01:33.463Z,16.08
2022-08-29T01:02:40.262Z,16.09
2022-08-29T01:03:43.003Z,16.06
2022-08-29T01:04:45.632Z,15.87
2022-08-29T01:05:48.633Z,15.81
2022-08-29T01:06:51.578Z,15.96
2022-08-29T01:07:53.272Z,15.99
2022-08-29T01:08:57.762Z,15.98
2022-08-29T01:10:00.261Z,15.96
2022-08-29T01:11:36.433Z,15.91
2022-08-29T01:12:38.405Z,15.82
2022-08-29T01:13:44.390Z,15.76
2022-08-29T01:14:52.539Z,15.85
2022-08-29T01:15:57.015Z,15.81
2022-08-29T01:16:59.560Z,15.72
2022-08-29T01:18:03.759Z,15.76
2022-08-29T01:19:24.301Z,15.77
2022-08-29T01:20:32.270Z,15.42
2022-08-29T01:21:55.869Z,15.71
2022-08-29T01:23:06.281Z,15.69
2022-08-29T01:24:35.420Z,15.67
2022-08-29T01:25:40.964Z,15.66
2022-08-29T01:26:45.388Z,15.65
2022-08-29T01:27:52.622Z,15.67
2022-08-29T01:28:54.625Z,15.66
2022-08-29T01:29:57.018Z,15.50
2022-08-29T01:31:01.182Z,15.62
2022-08-29T01:32:03.185Z,15.56
2022-08-29T01:33:04.966Z,15.57
2022-08-29T01:34:06.694Z,15.31
2022-08-29T01:35:08.959Z,15.53
2022-08-29T01:36:14.126Z,15.54
2022-08-29T01:37:17.032Z,15.48
2022-08-29T01:38:27.643Z,15.51
2022-08-29T01:39:36.341Z,15.48
2022-08-29T01:40:38.275Z,15.47
2022-08-29T01:41:41.712Z,15.33
2022-08-29T01:42:44.018Z,15.42
2022-08-29T01:43:49.123Z,15.42
2022-08-29T01:44:53.450Z,15.26
2022-08-29T01:45:56.298Z,15.34
2022-08-29T01:47:02.728Z,15.38
2022-08-29T01:48:05.109Z,15.39
2022-08-29T01:49:09.793Z,15.36
2022-08-29T01:50:14.382Z,15.32
2022-08-29T01:51:16.372Z,15.26
2022-08-29T01:52:18.547Z,15.29
2022-08-29T01:53:20.018Z,15.13
2022-08-29T01:54:21.810Z,15.22
2022-08-29T01:55:25.275Z,15.14
2022-08-29T01:56:31.021Z,15.25
2022-08-29T01:57:33.181Z,15.03
2022-08-29T01:58:34.757Z,15.17
2022-08-29T01:59:37.041Z,15.19
2022-08-29T02:00:39.026Z,15.20
2022-08-29T02:01:44.876Z,15.18
2022-08-29T02:02:46.519Z,15.14
2022-08-29T02:03:48.519Z,15.15
2022-08-29T02:04:50.069Z,15.09
2022-08-29T02:05:51.561Z,14.91
2022-08-29T02:06:53.286Z,15.12
2022-08-29T02:07:54.778Z,15.11
2022-08-29T02:08:56.349Z,15.12
2022-08-29T02:09:57.882Z,14.95
2022-08-29T02:10:59.838Z,15.08
2022-08-29T02:12:07.268Z,15.07
2022-08-29T02:13:08.756Z,14.75
2022-08-29T02:14:19.369Z,14.97
2022-08-29T02:15:21.641Z,15.09
2022-08-29T02:16:26.007Z,15.08
2022-08-29T02:17:27.919Z,15.09
2022-08-29T02:18:29.511Z,15.02
2022-08-29T02:19:32.627Z,15.08
2022-08-29T02:20:34.180Z,15.06
2022-08-29T02:21:35.962Z,15.05
2022-08-29T02:22:39.088Z,14.97
2022-08-29T02:23:41.911Z,15.01
2022-08-29T02:24:44.083Z,15.00
2022-08-29T02:25:47.557Z,14.91
2022-08-29T02:26:49.046Z,14.98
2022-08-29T02:27:52.230Z,14.94
2022-08-29T02:28:54.458Z,14.57
2022-08-29T02:29:56.401Z,14.92
2022-08-29T02:30:58.486Z,14.83
2022-08-29T02:32:00.073Z,14.92
2022-08-29T02:33:03.479Z,14.59
2022-08-29T02:34:10.063Z,14.90
2022-08-29T02:35:13.682Z,14.64
2022-08-29T02:36:15.328Z,14.85
2022-08-29T02:37:17.527Z,14.88
2022-08-29T02:38:19.953Z,14.68
2022-08-29T02:39:21.432Z,14.66
2022-08-29T02:40:24.674Z,14.86
2022-08-29T02:41:33.493Z,14.80
2022-08-29T02:42:35.043Z,14.83
2022-08-29T02:43:37.053Z,14.80
2022-08-29T02:44:38.513Z,14.66
2022-08-29T02:45:42.576Z,14.81
2022-08-29T02:46:44.271Z,14.51
2022-08-29T02:47:45.864Z,14.81
2022-08-29T02:48:59.886Z,14.80
2022-08-29T02:50:05.829Z,14.78
2022-08-29T02:51:07.376Z,14.76
2022-08-29T02:52:08.934Z,14.73
2022-08-29T02:53:11.914Z,14.69
2022-08-29T02:54:13.818Z,14.73
2022-08-29T02:55:17.783Z,14.70
2022-08-29T02:56:20.064Z,14.72
2022-08-29T02:57:21.568Z,14.71
2022-08-29T02:58:24.702Z,14.61
2022-08-29T02:59:27.761Z,14.72
2022-08-29T03:00:29.502Z,14.61
2022-08-29T03:01:31.294Z,14.62
2022-08-29T03:02:32.975Z,14.69
2022-08-29T03:03:35.180Z,14.70
2022-08-29T03:04:36.750Z,14.57
2022-08-29T03:05:38.476Z,14.64
2022-08-29T03:06:40.100Z,14.49
2022-08-29T03:07:42.581Z,14.65
2022-08-29T03:08:44.258Z,14.66
2022-08-29T03:09:45.838Z,14.52
2022-08-29T03:10:47.351Z,14.62
2022-08-29T03:11:49.113Z,14.59
2022-08-29T03:12:51.169Z,14.54
2022-08-29T03:13:57.497Z,14.38
2022-08-29T03:14:59.516Z,14.57
2022-08-29T03:16:05.183Z,14.57
2022-08-29T03:17:06.768Z,14.57
2022-08-29T03:18:08.316Z,14.41
2022-08-29T03:19:09.821Z,14.45
2022-08-29T03:20:13.458Z,14.55
2022-08-29T03:21:17.349Z,14.45
2022-08-29T03:22:19.155Z,14.39
2022-08-29T03:23:20.810Z,14.49
2022-08-29T03:24:25.012Z,14.48
2022-08-29T03:25:28.896Z,14.47
2022-08-29T03:26:30.549Z,14.44
2022-08-29T03:27:32.936Z,14.37
2022-08-29T03:28:34.535Z,14.40
2022-08-29T03:29:37.565Z,14.40
2022-08-29T03:30:40.064Z,14.24
2022-08-29T03:31:41.988Z,14.40
2022-08-29T03:32:44.016Z,14.38
2022-08-29T03:33:45.545Z,14.37
2022-08-29T03:34:47.265Z,14.30
2022-08-29T03:35:48.800Z,14.37
2022-08-29T03:36:52.024Z,14.22
2022-08-29T03:37:55.440Z,14.21
2022-08-29T03:38:57.001Z,14.13
2022-08-29T03:39:58.664Z,14.36
2022-08-29T03:41:00.179Z,14.37
2022-08-29T03:42:01.759Z,14.29
2022-08-29T03:43:03.474Z,13.98
2022-08-29T03:44:05.380Z,14.35
2022-08-29T03:45:10.634Z,14.34
2022-08-29T03:46:12.155Z,14.27
2022-08-29T03:47:14.234Z,14.29
2022-08-29T03:48:16.128Z,14.14
2022-08-29T03:49:17.671Z,14.35
2022-08-29T03:50:20.904Z,14.36
2022-08-29T03:51:22.682Z,14.05
2022-08-29T03:52:26.402Z,14.28
2022-08-29T03:53:28.056Z,14.34
2022-08-29T03:54:29.735Z,14.31
2022-08-29T03:55:31.351Z,14.33
2022-08-29T03:56:33.086Z,14.18
2022-08-29T03:57:34.823Z,14.33
2022-08-29T03:58:37.900Z,14.32
2022-08-29T03:59:39.524Z,14.34
2022-08-29T04:00:41.853Z,14.27
2022-08-29T04:01:44.863Z,14.32
2022-08-29T04:02:50.647Z,14.31
2022-08-29T04:03:53.336Z,14.30
2022-08-29T04:05:08.309Z,14.28
2022-08-29T04:06:10.880Z,14.26
2022-08-29T04:07:14.730Z,14.24
2022-08-29T04:08:16.426Z,14.23
2022-08-29T04:09:18.479Z,14.12
2022-08-29T04:10:27.112Z,14.16
2022-08-29T04:11:29.767Z,13.95
2022-08-29T04:12:31.324Z,13.96
2022-08-29T04:13:32.843Z,14.07
2022-08-29T04:14:35.338Z,13.94
2022-08-29T04:15:38.853Z,14.09
2022-08-29T04:16:40.366Z,14.07
2022-08-29T04:17:51.042Z,13.92
2022-08-29T04:18:54.902Z,14.04
2022-08-29T04:19:56.523Z,13.86
2022-08-29T04:21:02.431Z,13.97
2022-08-29T04:22:05.611Z,14.02
2022-08-29T04:23:07.927Z,13.86
2022-08-29T04:24:09.441Z,13.93
2022-08-29T04:25:13.370Z,13.93
2022-08-29T04:26:35.850Z,14.04
2022-08-29T04:27:38.698Z,13.84
2022-08-29T04:28:40.695Z,14.04
2022-08-29T04:29:42.218Z,13.92
2022-08-29T04:30:52.002Z,14.02
2022-08-29T04:31:54.602Z,13.98
2022-08-29T04:32:56.765Z,14.01
2022-08-29T04:33:58.308Z,13.78
2022-08-29T04:35:00.062Z,14.00
2022-08-29T04:36:06.030Z,13.98
2022-08-29T04:37:07.574Z,13.96
2022-08-29T04:38:09.356Z,13.94
2022-08-29T04:39:11.818Z,13.83
2022-08-29T04:40:18.517Z,13.93
2022-08-29T04:41:20.164Z,13.97
2022-08-29T04:42:21.764Z,13.82
2022-08-29T04:43:23.376Z,13.80
2022-08-29T04:44:24.900Z,13.97
2022-08-29T04:45:26.865Z,13.94
2022-08-29T04:46:28.919Z,13.93
2022-08-29T04:47:31.022Z,13.77
2022-08-29T04:48:33.026Z,13.76
2022-08-29T04:49:34.588Z,13.93
2022-08-29T04:50:36.102Z,14.00
2022-08-29T04:51:37.921Z,14.01
2022-08-29T04:52:40.190Z,13.88
2022-08-29T04:53:41.808Z,14.04
2022-08-29T04:54:43.571Z,14.03
2022-08-29T04:55:45.135Z,13.89
2022-08-29T04:56:47.497Z,14.01
2022-08-29T04:57:52.071Z,14.04
2022-08-29T04:58:53.640Z,13.57
2022-08-29T04:59:56.602Z,14.08
2022-08-29T05:00:58.771Z,14.12
2022-08-29T05:02:00.364Z,14.04
2022-08-29T05:03:02.490Z,13.99
2022-08-29T05:04:04.126Z,14.01
2022-08-29T05:05:06.588Z,14.12
2022-08-29T05:06:11.938Z,14.12
2022-08-29T05:07:14.618Z,14.13
2022-08-29T05:08:16.267Z,14.09
2022-08-29T05:09:17.839Z,14.14
2022-08-29T05:10:21.795Z,14.06
2022-08-29T05:11:26.111Z,14.07
2022-08-29T05:12:30.409Z,14.03
2022-08-29T05:13:32.308Z,14.04
2022-08-29T05:14:34.144Z,14.18
2022-08-29T05:15:38.480Z,14.07
2022-08-29T05:16:40.747Z,14.18
2022-08-29T05:17:42.842Z,14.05
2022-08-29T05:18:46.681Z,14.15
2022-08-29T05:19:49.217Z,14.25
2022-08-29T05:20:50.791Z,14.11
2022-08-29T05:21:57.841Z,14.23
2022-08-29T05:23:00.139Z,14.29
2022-08-29T05:24:07.044Z,14.31
2022-08-29T05:25:15.811Z,14.27
2022-08-29T05:26:19.683Z,14.33
2022-08-29T05:27:22.730Z,14.36
2022-08-29T05:28:25.557Z,14.41
2022-08-29T05:29:27.357Z,14.41
2022-08-29T05:30:34.565Z,14.48
2022-08-29T05:31:41.881Z,14.50
2022-08-29T05:32:44.010Z,14.43
2022-08-29T05:33:45.582Z,14.58
2022-08-29T05:34:48.867Z,14.64
2022-08-29T05:35:50.467Z,14.67
2022-08-29T05:36:52.111Z,14.66
2022-08-29T05:37:53.649Z,14.54
2022-08-29T05:38:55.534Z,14.78
2022-08-29T05:39:57.188Z,14.80
2022-08-29T05:40:58.711Z,14.81
2022-08-29T05:42:01.286Z,14.94
2022-08-29T05:43:03.064Z,14.99
2022-08-29T05:44:04.622Z,14.96
2022-08-29T05:45:07.339Z,15.00
2022-08-29T05:46:10.028Z,15.09
2022-08-29T05:47:13.959Z,15.13
2022-08-29T05:48:17.345Z,15.17
2022-08-29T05:49:19.145Z,15.23
2022-08-29T05:50:20.687Z,15.06
2022-08-29T05:51:24.227Z,15.29
2022-08-29T05:52:26.695Z,15.31
2022-08-29T05:53:28.885Z,15.32
2022-08-29T05:54:34.338Z,15.41
2022-08-29T05:55:40.860Z,15.40
2022-08-29T05:56:42.911Z,15.54
2022-08-29T05:57:44.449Z,15.62
2022-08-29T05:58:45.915Z,15.69
2022-08-29T05:59:49.598Z,15.76
2022-08-29T06:00:51.118Z,15.76
2022-08-29T06:01:52.619Z,15.75
2022-08-29T06:02:54.961Z,15.88
2022-08-29T06:03:57.993Z,16.01
2022-08-29T06:04:59.675Z,16.13
2022-08-29T06:06:01.248Z,16.07
2022-08-29T06:07:04.708Z,16.33
2022-08-29T06:08:07.264Z,16.43
2022-08-29T06:09:09.305Z,16.55
2022-08-29T06:10:10.863Z,16.56
2022-08-29T06:11:20.981Z,16.78
2022-08-29T06:12:24.410Z,16.90
2022-08-29T06:13:26.678Z,16.94
2022-08-29T06:14:28.873Z,17.11
2022-08-29T06:15:30.981Z,17.19
2022-08-29T06:16:32.867Z,17.24
2022-08-29T06:17:35.239Z,17.22
2022-08-29T06:18:36.844Z,17.27
2022-08-29T06:19:39.672Z,17.33
2022-08-29T06:20:41.467Z,17.52
2022-08-29T06:21:43.091Z,17.57
2022-08-29T06:22:44.603Z,17.71
2022-08-29T06:23:47.438Z,17.72
2022-08-29T06:24:53.277Z,17.76
2022-08-29T06:25:59.087Z,18.13
2022-08-29T06:27:01.856Z,18.52
2022-08-29T06:28:03.688Z,18.74
2022-08-29T06:29:08.095Z,19.19
2022-08-29T06:30:09.823Z,19.52
2022-08-29T06:31:14.174Z,19.90
2022-08-29T06:32:15.840Z,20.17
2022-08-29T06:33:17.525Z,20.50
2022-08-29T06:34:19.120Z,20.89
2022-08-29T06:35:20.677Z,21.20
2022-08-29T06:36:22.608Z,21.74
2022-08-29T06:37:24.393Z,22.17
2022-08-29T06:38:25.899Z,22.42
2022-08-29T06:39:27.441Z,22.82
2022-08-29T06:40:29.007Z,23.49
2022-08-29T06:41:30.817Z,24.01
2022-08-29T06:42:32.306Z,23.93
2022-08-29T06:43:34.286Z,24.38
2022-08-29T06:44:35.966Z,24.48
2022-08-29T06:45:42.466Z,24.47
2022-08-29T06:46:47.927Z,24.99
2022-08-29T06:47:49.498Z,25.31
2022-08-29T06:48:51.860Z,25.46
2022-08-29T06:49:53.375Z,25.38
2022-08-29T06:50:54.977Z,25.12
2022-08-29T06:51:58.268Z,25.31
2022-08-29T06:53:14.725Z,24.86
2022-08-29T06:54:25.234Z,24.77
2022-08-29T06:55:29.933Z,24.52
2022-08-29T06:56:32.424Z,24.60
2022-08-29T06:57:34.026Z,24.41
2022-08-29T06:58:36.054Z,24.77
2022-08-29T06:59:37.710Z,24.96
2022-08-29T07:00:47.433Z,24.61
2022-08-29T07:01:51.124Z,24.26
2022-08-29T07:02:53.395Z,24.32
2022-08-29T07:03:56.979Z,24.69
2022-08-29T07:04:58.546Z,25.01
2022-08-29T07:06:00.492Z,25.22
2022-08-29T07:07:02.027Z,25.49
2022-08-29T07:08:03.946Z,25.81
2022-08-29T07:09:06.399Z,26.11
2022-08-29T07:10:09.122Z,26.12
2022-08-29T07:11:11.598Z,26.26
2022-08-29T07:12:13.170Z,25.85
2022-08-29T07:13:14.813Z,25.83
2022-08-29T07:14:16.626Z,26.25
2022-08-29T07:15:19.431Z,26.34
2022-08-29T07:16:21.127Z,26.01
2022-08-29T07:17:25.848Z,26.36
2022-08-29T07:18:28.031Z,26.67
2022-08-29T07:19:29.541Z,26.77
2022-08-29T07:20:31.100Z,26.83
2022-08-29T07:21:33.072Z,27.35
2022-08-29T07:22:35.475Z,27.75
2022-08-29T07:23:37.633Z,27.19
2022-08-29T07:24:39.157Z,27.54
2022-08-29T07:25:40.649Z,27.42
2022-08-29T07:26:44.163Z,27.45
2022-08-29T07:27:46.786Z,27.13
2022-08-29T07:28:58.639Z,27.05
2022-08-29T07:30:03.056Z,27.37
2022-08-29T07:31:06.111Z,27.99
2022-08-29T07:32:07.937Z,28.11
2022-08-29T07:33:09.501Z,28.65
2022-08-29T07:34:11.229Z,28.03
2022-08-29T07:35:18.380Z,28.26
2022-08-29T07:36:26.156Z,28.47
2022-08-29T07:37:27.768Z,28.74
2022-08-29T07:38:30.831Z,28.98
2022-08-29T07:39:32.759Z,28.37
2022-08-29T07:40:34.362Z,28.61
2022-08-29T07:41:37.671Z,29.17
2022-08-29T07:42:39.513Z,29.72
2022-08-29T07:43:42.709Z,29.88
2022-08-29T07:44:44.470Z,30.24
2022-08-29T07:45:46.068Z,30.21
2022-08-29T07:46:47.656Z,30.23
2022-08-29T07:47:49.214Z,30.34
2022-08-29T07:48:52.684Z,30.64
2022-08-29T07:49:54.516Z,31.06
2022-08-29T07:50:56.030Z,31.06
2022-08-29T07:51:57.681Z,30.60
2022-08-29T07:52:59.198Z,30.32
2022-08-29T07:54:00.766Z,30.96
2022-08-29T07:55:05.308Z,31.14
2022-08-29T07:56:09.767Z,31.21
2022-08-29T07:57:11.632Z,31.07
2022-08-29T07:58:13.175Z,31.49
2022-08-29T07:59:15.309Z,30.91
2022-08-29T08:00:17.203Z,31.12
2022-08-29T08:01:21.569Z,31.56
2022-08-29T08:02:23.543Z,31.80
2022-08-29T08:03:27.060Z,31.27
2022-08-29T08:04:28.628Z,30.99
2022-08-29T08:05:30.313Z,30.41
2022-08-29T08:06:34.431Z,30.25
2022-08-29T08:07:39.576Z,29.98
2022-08-29T08:08:44.906Z,30.10
2022-08-29T08:09:48.398Z,30.60
2022-08-29T08:10:52.145Z,31.42
2022-08-29T08:11:54.111Z,31.68
2022-08-29T08:12:55.636Z,31.85
2022-08-29T08:13:57.812Z,31.93
2022-08-29T08:14:59.491Z,32.28
2022-08-29T08:16:05.882Z,31.93
2022-08-29T08:17:07.408Z,31.44
2022-08-29T08:18:09.118Z,31.16
2022-08-29T08:19:10.715Z,31.61
2022-08-29T08:20:12.389Z,32.08
2022-08-29T08:21:14.365Z,32.61
2022-08-29T08:22:15.987Z,32.97
2022-08-29T08:23:19.029Z,32.91
2022-08-29T08:24:21.296Z,32.71
2022-08-29T08:25:24.404Z,31.96
2022-08-29T08:26:26.338Z,31.54
2022-08-29T08:27:27.976Z,31.38
2022-08-29T08:28:30.591Z,31.68
2022-08-29T08:29:32.148Z,31.33
2022-08-29T08:30:35.752Z,31.22
2022-08-29T08:31:42.962Z,31.12
2022-08-29T08:32:48.020Z,31.09
2022-08-29T08:33:51.959Z,31.28
2022-08-29T08:34:54.302Z,31.53
2022-08-29T08:35:57.261Z,31.33
2022-08-29T08:36:59.023Z,31.38
2022-08-29T08:38:01.891Z,31.42
2022-08-29T08:39:03.682Z,31.24
2022-08-29T08:40:06.613Z,31.44
2022-08-29T08:41:27.537Z,32.03
2022-08-29T08:42:44.011Z,32.06
2022-08-29T08:43:51.934Z,32.19
2022-08-29T08:45:06.732Z,32.67
2022-08-29T08:46:08.423Z,31.20
2022-08-29T08:47:12.643Z,31.11
2022-08-29T08:48:30.926Z,31.50
2022-08-29T08:49:32.366Z,31.35
2022-08-29T08:50:43.267Z,30.79
2022-08-29T08:51:51.003Z,30.90
2022-08-29T08:53:07.352Z,31.35
2022-08-29T08:54:20.101Z,31.55
2022-08-29T08:55:41.378Z,32.19
2022-08-29T08:56:46.863Z,31.71
2022-08-29T08:58:09.180Z,32.00
2022-08-29T08:59:18.574Z,32.38
2022-08-29T09:00:20.474Z,32.51
2022-08-29T09:01:31.470Z,32.23
2022-08-29T09:02:35.214Z,32.49
2022-08-29T09:04:14.417Z,32.79
2022-08-29T09:05:34.827Z,33.10
2022-08-29T09:06:53.336Z,33.27
2022-08-29T09:07:57.623Z,33.15
2022-08-29T09:09:17.517Z,33.30
2022-08-29T09:10:31.440Z,32.75
2022-08-29T09:12:03.354Z,32.35
2022-08-29T09:13:08.142Z,31.98
2022-08-29T09:14:26.638Z,32.35
2022-08-29T09:15:38.430Z,32.76
2022-08-29T09:16:48.637Z,33.08
2022-08-29T09:17:57.704Z,32.96
2022-08-29T09:19:03.980Z,32.89
2022-08-29T09:20:10.765Z,32.48
2022-08-29T09:21:39.390Z,32.28
2022-08-29T09:22:40.623Z,32.93
2022-08-29T09:23:44.421Z,33.25
2022-08-29T09:24:56.597Z,32.86
2022-08-29T09:25:58.195Z,32.45
2022-08-29T09:26:59.790Z,31.42
2022-08-29T09:28:02.354Z,31.21
2022-08-29T09:29:04.012Z,31.47
2022-08-29T09:30:05.829Z,31.15
2022-08-29T09:31:25.820Z,30.94
2022-08-29T09:32:27.537Z,30.47
2022-08-29T09:33:42.606Z,30.78
2022-08-29T09:35:08.014Z,30.84
2022-08-29T09:36:17.882Z,30.70
2022-08-29T09:37:34.393Z,31.14
2022-08-29T09:38:36.043Z,31.11
2022-08-29T09:39:37.680Z,30.76
2022-08-29T09:40:44.929Z,30.92
2022-08-29T09:42:08.126Z,30.21
2022-08-29T09:43:36.220Z,30.30
2022-08-29T09:44:39.367Z,30.80
2022-08-29T09:45:41.000Z,30.98
2022-08-29T09:46:42.837Z,31.38
2022-08-29T09:47:45.241Z,31.16
2022-08-29T09:48:53.696Z,31.49
2022-08-29T09:50:24.646Z,31.33
2022-08-29T09:51:26.255Z,31.46
2022-08-29T09:52:28.264Z,31.33
2022-08-29T09:53:30.417Z,31.63
2022-08-29T09:54:32.325Z,32.07
2022-08-29T09:55:35.490Z,32.53
2022-08-29T09:56:40.769Z,32.82
2022-08-29T09:57:48.410Z,32.96
2022-08-29T09:59:11.254Z,33.09
2022-08-29T10:00:21.208Z,33.13
2022-08-29T10:01:28.146Z,33.20
2022-08-29T10:02:43.842Z,32.37
2022-08-29T10:03:58.533Z,32.35
2022-08-29T10:05:06.702Z,32.93
2022-08-29T10:06:23.111Z,32.98
2022-08-29T10:07:28.698Z,33.43
2022-08-29T10:08:36.292Z,34.10
2022-08-29T10:09:38.045Z,33.56
2022-08-29T10:10:52.747Z,32.63
2022-08-29T10:12:07.922Z,33.19
2022-08-29T10:13:22.154Z,33.95
2022-08-29T10:14:38.358Z,34.75
2022-08-29T10:15:50.847Z,34.97
2022-08-29T10:17:20.640Z,35.40
2022-08-29T10:18:44.260Z,35.93
2022-08-29T10:19:46.190Z,36.39
2022-08-29T10:20:56.085Z,36.86
2022-08-29T10:22:17.097Z,37.28
2022-08-29T10:23:48.096Z,36.93
2022-08-29T10:25:28.669Z,36.63
2022-08-29T10:26:38.301Z,36.51
2022-08-29T10:27:48.563Z,36.79
2022-08-29T10:29:10.387Z,36.90
2022-08-29T10:30:17.407Z,36.47
2022-08-29T10:31:34.177Z,36.23
2022-08-29T10:32:52.996Z,36.61
2022-08-29T10:34:25.733Z,35.92
2022-08-29T10:35:33.282Z,36.40
2022-08-29T10:36:38.668Z,36.87
2022-08-29T10:38:04.023Z,36.85
2022-08-29T10:39:43.927Z,36.75
2022-08-29T10:41:02.313Z,36.39
2022-08-29T10:42:16.454Z,36.88
2022-08-29T10:43:45.324Z,37.26
2022-08-29T10:44:50.321Z,36.83
2022-08-29T10:46:06.584Z,36.23
2022-08-29T10:47:20.257Z,35.81
2022-08-29T10:48:30.273Z,35.88
2022-08-29T10:49:31.787Z,36.07
2022-08-29T10:50:46.392Z,36.47
2022-08-29T10:51:53.668Z,36.55
2022-08-29T10:53:25.533Z,36.79
2022-08-29T10:54:39.193Z,36.65
2022-08-29T10:55:56.009Z,37.03
2022-08-29T10:56:59.679Z,37.39
2022-08-29T10:58:20.296Z,36.76
2022-08-29T10:59:35.150Z,36.77
2022-08-29T11:00:46.575Z,36.62
2022-08-29T11:02:05.260Z,36.81
2022-08-29T11:03:35.861Z,36.47
2022-08-29T11:04:39.156Z,36.32
2022-08-29T11:05:46.668Z,36.71
2022-08-29T11:06:59.647Z,37.00
2022-08-29T11:08:01.192Z,37.04
2022-08-29T11:09:17.746Z,37.20
2022-08-29T11:10:31.046Z,37.54
2022-08-29T11:11:36.431Z,37.72
2022-08-29T11:12:49.900Z,37.80
2022-08-29T11:14:01.151Z,37.20
2022-08-29T11:15:15.362Z,36.60
2022-08-29T11:16:33.950Z,36.69
2022-08-29T11:17:40.731Z,36.89
2022-08-29T11:18:53.025Z,37.14
2022-08-29T11:20:05.069Z,37.55
2022-08-29T11:21:20.996Z,37.32
2022-08-29T11:22:29.179Z,37.37
2022-08-29T11:23:37.707Z,37.29
2022-08-29T11:24:43.001Z,37.07
2022-08-29T11:25:48.240Z,36.69
2022-08-29T11:27:15.956Z,36.13
2022-08-29T11:28:29.057Z,36.06
2022-08-29T11:30:07.284Z,35.69
2022-08-29T11:31:46.342Z,35.10
2022-08-29T11:32:50.916Z,35.57
2022-08-29T11:34:22.604Z,36.13
2022-08-29T11:35:43.767Z,35.26
2022-08-29T11:37:20.088Z,35.96
2022-08-29T11:38:50.230Z,36.26
2022-08-29T11:39:57.777Z,36.26
2022-08-29T11:41:30.632Z,36.83
2022-08-29T11:42:52.676Z,37.17
2022-08-29T11:44:09.297Z,37.52
2022-08-29T11:45:14.700Z,36.90
2022-08-29T11:46:30.036Z,36.95
2022-08-29T11:47:46.818Z,37.15
2022-08-29T11:48:55.758Z,37.69
2022-08-29T11:50:29.175Z,38.00
2022-08-29T11:51:37.466Z,38.28
2022-08-29T11:52:50.376Z,38.11
2022-08-29T11:53:51.928Z,37.86
2022-08-29T11:55:24.872Z,37.32
2022-08-29T11:56:28.434Z,37.05
2022-08-29T11:57:31.737Z,37.05
2022-08-29T11:58:38.845Z,36.71
2022-08-29T11:59:49.375Z,36.37
2022-08-29T12:00:56.146Z,36.25
2022-08-29T12:02:01.256Z,35.72
2022-08-29T12:03:07.333Z,35.71
2022-08-29T12:04:53.367Z,35.24
2022-08-29T12:06:18.192Z,34.81
2022-08-29T12:07:22.145Z,34.96
2022-08-29T12:08:37.280Z,35.49
2022-08-29T12:09:50.421Z,36.46
2022-08-29T12:10:56.406Z,36.26
2022-08-29T12:12:04.436Z,36.13
2022-08-29T12:13:06.818Z,35.76
2022-08-29T12:14:08.411Z,35.23
2022-08-29T12:15:28.103Z,35.11
2022-08-29T12:16:49.746Z,35.70
2022-08-29T12:18:01.875Z,35.86
2022-08-29T12:19:47.124Z,36.30
2022-08-29T12:20:52.405Z,35.94
2022-08-29T12:21:54.080Z,34.92
2022-08-29T12:23:00.443Z,35.55
2022-08-29T12:24:04.695Z,35.73
2022-08-29T12:25:27.224Z,35.76
2022-08-29T12:26:40.322Z,35.76
2022-08-29T12:28:02.130Z,36.18
2022-08-29T12:29:10.432Z,36.51
2022-08-29T12:30:14.377Z,36.45
2022-08-29T12:31:34.248Z,36.03
2022-08-29T12:32:45.527Z,35.59
2022-08-29T12:34:25.506Z,35.73
2022-08-29T12:35:56.264Z,36.03
2022-08-29T12:37:16.203Z,36.66
2022-08-29T12:38:31.101Z,36.86
2022-08-29T12:40:11.179Z,37.00
2022-08-29T12:41:48.533Z,36.76
2022-08-29T12:43:10.646Z,36.59
2022-08-29T12:44:16.506Z,35.95
2022-08-29T12:45:26.695Z,35.55
2022-08-29T12:46:40.629Z,34.96
2022-08-29T12:47:49.166Z,34.84
2022-08-29T12:48:57.754Z,34.36
2022-08-29T12:50:16.344Z,33.90
2022-08-29T12:51:37.070Z,33.46
2022-08-29T12:52:38.643Z,33.05
2022-08-29T12:53:40.279Z,33.36
2022-08-29T12:54:42.003Z,33.91
2022-08-29T12:55:53.590Z,34.61
2022-08-29T12:56:57.974Z,35.22
2022-08-29T12:58:00.048Z,35.30
2022-08-29T12:59:04.932Z,35.35
2022-08-29T13:00:15.776Z,35.16
2022-08-29T13:01:49.907Z,34.11
2022-08-29T13:02:58.541Z,33.18
2022-08-29T13:04:13.100Z,32.72
2022-08-29T13:05:25.547Z,32.24
2022-08-29T13:06:32.152Z,32.17
2022-08-29T13:07:33.731Z,32.74
2022-08-29T13:08:39.234Z,33.31
2022-08-29T13:09:45.111Z,33.70
2022-08-29T13:11:07.561Z,34.09
2022-08-29T13:12:14.760Z,34.53
2022-08-29T13:13:20.760Z,35.24
2022-08-29T13:14:23.723Z,35.60
2022-08-29T13:15:30.928Z,36.15
2022-08-29T13:16:34.443Z,36.56
2022-08-29T13:17:41.740Z,36.69
2022-08-29T13:19:00.232Z,36.49
2022-08-29T13:20:45.962Z,36.14
2022-08-29T13:21:47.679Z,36.34
2022-08-29T13:22:49.467Z,36.27
2022-08-29T13:24:03.000Z,35.82
2022-08-29T13:25:05.966Z,35.41
2022-08-29T13:26:10.564Z,35.59
2022-08-29T13:27:24.599Z,35.93
2022-08-29T13:28:37.528Z,35.44
2022-08-29T13:29:41.867Z,35.49
2022-08-29T13:30:43.513Z,35.95
2022-08-29T13:32:09.091Z,35.50
2022-08-29T13:33:27.922Z,35.99
2022-08-29T13:34:37.215Z,36.00
2022-08-29T13:35:38.890Z,35.88
2022-08-29T13:37:07.714Z,35.61
2022-08-29T13:38:21.925Z,35.14
2022-08-29T13:39:27.868Z,35.22
2022-08-29T13:40:43.682Z,35.40
2022-08-29T13:41:48.952Z,35.64
2022-08-29T13:42:50.684Z,35.98
2022-08-29T13:43:52.915Z,36.25
2022-08-29T13:45:00.833Z,36.30
2022-08-29T13:46:25.391Z,36.07
2022-08-29T13:47:45.982Z,35.96
2022-08-29T13:48:58.785Z,35.61
2022-08-29T13:50:05.639Z,35.62
2022-08-29T13:51:08.461Z,35.98
2022-08-29T13:52:11.597Z,36.21
2022-08-29T13:53:13.331Z,36.49
2022-08-29T13:54:15.245Z,36.59
2022-08-29T13:55:16.997Z,36.50
2022-08-29T13:56:22.471Z,36.71
2022-08-29T13:57:26.651Z,36.66
2022-08-29T13:58:30.317Z,36.80
2022-08-29T13:59:35.951Z,36.78
2022-08-29T14:00:38.057Z,36.85
2022-08-29T14:03:01.496Z,36.25
2022-08-29T14:04:27.114Z,36.40
2022-08-29T14:05:25.048Z,36.38
2022-08-29T14:06:27.896Z,36.68
2022-08-29T14:07:31.282Z,36.41
2022-08-29T14:08:34.173Z,36.16
2022-08-29T14:09:39.308Z,35.86
2022-08-29T14:10:41.023Z,35.42
2022-08-29T14:11:45.355Z,35.59
2022-08-29T14:12:47.180Z,35.58
2022-08-29T14:13:49.353Z,35.40
2022-08-29T14:14:50.946Z,35.62
2022-08-29T14:15:53.737Z,35.50
2022-08-29T14:16:56.777Z,35.62
2022-08-29T14:17:58.607Z,35.91